createdAt,value
2022-10-12T03:00:32.246Z,8.04
2022-10-12T03:03:00.691Z,8.13
2022-10-12T03:05:29.038Z,8.09
2022-10-12T03:07:57.449Z,7.97
2022-10-12T03:10:26.004Z,7.99
2022-10-12T03:12:55.239Z,7.98
2022-10-12T03:15:23.655Z,7.96
2022-10-12T03:17:54.883Z,7.96
2022-10-12T03:20:23.299Z,8.00
2022-10-12T03:22:51.748Z,7.97
2022-10-12T03:25:20.182Z,7.93
2022-10-12T03:27:48.657Z,7.92
2022-10-12T03:30:17.331Z,7.85
2022-10-12T03:32:45.705Z,7.72
2022-10-12T03:35:15.707Z,7.94
2022-10-12T03:37:44.038Z,8.29
2022-10-12T03:40:13.943Z,8.43
2022-10-12T03:42:42.277Z,8.54
2022-10-12T03:45:11.867Z,8.64
2022-10-12T03:47:40.638Z,8.79
2022-10-12T03:50:10.348Z,8.47
2022-10-12T03:52:40.057Z,8.32
2022-10-12T03:55:09.343Z,8.32
2022-10-12T03:57:38.438Z,8.27
2022-10-12T04:00:08.776Z,8.10
2022-10-12T04:02:39.981Z,8.08
2022-10-12T04:05:09.116Z,8.02
2022-10-12T04:07:39.324Z,7.94
2022-10-12T04:10:09.432Z,7.89
2022-10-12T04:12:37.828Z,7.78
2022-10-12T04:15:08.068Z,7.61
2022-10-12T04:17:36.778Z,7.51
2022-10-12T04:20:07.017Z,7.51
2022-10-12T04:22:35.717Z,7.46
2022-10-12T04:25:06.700Z,7.36
2022-10-12T04:27:35.333Z,7.30
2022-10-12T04:30:03.976Z,7.29
2022-10-12T04:32:32.481Z,7.30
2022-10-12T04:35:00.921Z,7.28
2022-10-12T04:37:29.399Z,7.28
2022-10-12T04:39:57.822Z,7.28
2022-10-12T04:42:27.648Z,7.28
2022-10-12T04:44:56.107Z,7.17
2022-10-12T04:47:24.513Z,7.29
2022-10-12T04:49:52.887Z,7.25
2022-10-12T04:52:21.360Z,7.24
2022-10-12T04:54:49.885Z,7.28
2022-10-12T04:57:18.285Z,7.26
2022-10-12T04:59:48.121Z,7.26
2022-10-12T05:02:16.494Z,7.27
2022-10-12T05:04:44.883Z,7.24
2022-10-12T05:07:13.448Z,7.18
2022-10-12T05:09:41.837Z,7.19
2022-10-12T05:12:10.242Z,7.17
2022-10-12T05:14:38.879Z,7.17
2022-10-12T05:17:08.587Z,7.12
2022-10-12T05:19:36.979Z,7.06
2022-10-12T05:22:05.378Z,7.09
2022-10-12T05:24:33.849Z,7.02
2022-10-12T05:27:03.070Z,6.95
2022-10-12T05:29:31.494Z,6.97
2022-10-12T05:31:59.982Z,7.08
2022-10-12T05:34:29.751Z,7.07
2022-10-12T05:36:58.738Z,7.00
2022-10-12T05:39:27.712Z,7.04
2022-10-12T05:41:56.109Z,7.17
2022-10-12T05:44:24.569Z,7.23
2022-10-12T05:46:53.427Z,7.20
2022-10-12T05:49:22.327Z,7.10
2022-10-12T05:51:52.418Z,7.09
2022-10-12T05:54:22.005Z,6.89
2022-10-12T05:56:50.464Z,6.92
2022-10-12T05:59:18.862Z,6.95
2022-10-12T06:01:48.062Z,6.96
2022-10-12T06:04:16.557Z,6.91
2022-10-12T06:06:44.920Z,6.97
2022-10-12T06:09:14.851Z,6.94
2022-10-12T06:11:43.302Z,7.00
2022-10-12T06:14:11.870Z,7.05
2022-10-12T06:16:40.180Z,7.09
2022-10-12T06:19:08.623Z,7.08
2022-10-12T06:21:37.000Z,7.11
2022-10-12T06:24:05.944Z,7.18
2022-10-12T06:26:35.704Z,7.19
2022-10-12T06:29:04.215Z,7.23
2022-10-12T06:31:33.934Z,7.26
2022-10-12T06:34:02.478Z,7.39
2022-10-12T06:36:30.779Z,7.49
2022-10-12T06:38:59.283Z,7.48
2022-10-12T06:41:27.858Z,7.45
2022-10-12T06:43:57.651Z,7.49
2022-10-12T06:46:26.041Z,7.53
2022-10-12T06:48:54.513Z,7.70
2022-10-12T06:51:22.922Z,7.88
2022-10-12T06:53:51.265Z,7.91
2022-10-12T06:56:19.619Z,7.92
2022-10-12T06:58:47.991Z,8.08
2022-10-12T07:01:17.808Z,8.14
2022-10-12T07:03:46.179Z,8.18
2022-10-12T07:06:16.015Z,8.14
2022-10-12T07:08:44.852Z,8.25
2022-10-12T07:11:15.158Z,8.13
2022-10-12T07:13:43.633Z,7.96
2022-10-12T07:16:12.055Z,8.13
2022-10-12T07:18:42.075Z,8.15
2022-10-12T07:21:10.402Z,8.04
2022-10-12T07:23:42.502Z,8.03
2022-10-12T07:26:13.458Z,8.12
2022-10-12T07:28:41.893Z,8.05
2022-10-12T07:31:11.083Z,8.09
2022-10-12T07:33:41.341Z,8.22
2022-10-12T07:36:14.204Z,8.29
2022-10-12T07:38:45.426Z,8.53
2022-10-12T07:41:15.062Z,8.63
2022-10-12T07:43:43.679Z,8.95
2022-10-12T07:46:12.991Z,9.09
2022-10-12T07:48:48.931Z,9.02
2022-10-12T07:51:18.827Z,9.01
2022-10-12T07:53:47.170Z,8.99
2022-10-12T07:56:16.193Z,9.08
2022-10-12T07:58:49.267Z,9.07
2022-10-12T08:01:18.835Z,9.20
2022-10-12T08:03:48.635Z,9.25
2022-10-12T08:06:20.086Z,9.49
2022-10-12T08:08:49.177Z,9.61
2022-10-12T08:11:18.098Z,9.75
2022-10-12T08:13:47.380Z,9.99
2022-10-12T08:16:18.904Z,9.90
2022-10-12T08:18:48.952Z,9.99
2022-10-12T08:21:18.898Z,10.53
2022-10-12T08:23:47.886Z,11.25
2022-10-12T08:26:16.909Z,12.50
2022-10-12T08:28:45.639Z,12.93
2022-10-12T08:31:17.667Z,13.14
2022-10-12T08:33:46.445Z,13.39
2022-10-12T08:36:16.877Z,13.92
2022-10-12T08:38:48.609Z,14.25
2022-10-12T08:41:39.425Z,14.41
2022-10-12T08:44:34.713Z,14.72
2022-10-12T08:47:10.661Z,14.53
2022-10-12T08:49:41.069Z,14.49
2022-10-12T08:52:25.583Z,14.35
2022-10-12T08:54:54.718Z,14.97
2022-10-12T08:57:23.068Z,15.04
2022-10-12T08:59:51.431Z,15.19
2022-10-12T09:02:38.826Z,15.22
2022-10-12T09:05:12.225Z,15.11
2022-10-12T09:07:48.901Z,14.78
2022-10-12T09:10:37.094Z,15.22
2022-10-12T09:13:19.997Z,15.23
2022-10-12T09:15:53.969Z,15.64
2022-10-12T09:18:30.569Z,15.76
2022-10-12T09:21:02.707Z,15.84
2022-10-12T09:23:36.491Z,16.01
2022-10-12T09:26:15.084Z,16.06
2022-10-12T09:28:46.120Z,16.59
2022-10-12T09:31:36.657Z,16.43
2022-10-12T09:34:07.787Z,16.64
2022-10-12T09:36:39.254Z,16.17
2022-10-12T09:39:14.812Z,16.45
2022-10-12T09:41:46.277Z,16.76
2022-10-12T09:44:22.650Z,16.51
2022-10-12T09:46:57.074Z,16.53
2022-10-12T09:49:43.634Z,16.51
2022-10-12T09:52:15.288Z,16.79
2022-10-12T09:54:50.623Z,16.71
2022-10-12T09:57:27.645Z,17.23
2022-10-12T09:59:56.641Z,16.93
2022-10-12T10:02:26.289Z,16.60
2022-10-12T10:04:56.058Z,16.91
2022-10-12T10:07:29.778Z,17.30
2022-10-12T10:10:29.774Z,17.35
2022-10-12T10:13:03.047Z,17.53
2022-10-12T10:15:34.117Z,17.46
2022-10-12T10:18:06.624Z,16.82
2022-10-12T10:20:43.581Z,17.19
2022-10-12T10:23:25.850Z,17.59
2022-10-12T10:26:04.384Z,17.43
2022-10-12T10:28:35.141Z,17.44
2022-10-12T10:31:06.463Z,17.69
2022-10-12T10:33:37.098Z,18.15
2022-10-12T10:36:13.131Z,18.62
2022-10-12T10:38:56.727Z,18.28
2022-10-12T10:41:31.639Z,17.86
2022-10-12T10:44:00.062Z,18.04
2022-10-12T10:46:32.666Z,17.51
2022-10-12T10:49:06.675Z,17.33
2022-10-12T10:51:48.576Z,17.44
2022-10-12T10:54:27.423Z,17.72
2022-10-12T10:57:02.985Z,18.17
2022-10-12T10:59:43.104Z,18.38
2022-10-12T11:02:25.974Z,18.54
2022-10-12T11:05:03.493Z,18.49
2022-10-12T11:07:37.525Z,18.69
2022-10-12T11:10:17.215Z,18.34
2022-10-12T11:12:52.312Z,18.52
2022-10-12T11:15:26.209Z,18.74
2022-10-12T11:18:04.469Z,18.62
2022-10-12T11:20:42.877Z,17.83
2022-10-12T11:23:20.460Z,18.10
2022-10-12T11:26:19.757Z,18.28
2022-10-12T11:28:49.863Z,18.46
2022-10-12T11:31:23.711Z,18.56
2022-10-12T11:33:53.667Z,18.54
2022-10-12T11:36:24.870Z,18.89
2022-10-12T11:38:57.796Z,19.10
2022-10-12T11:41:36.272Z,19.37
2022-10-12T11:44:15.752Z,19.32
2022-10-12T11:46:50.503Z,19.26
2022-10-12T11:49:28.488Z,19.30
2022-10-12T11:52:00.536Z,19.70
2022-10-12T11:54:36.491Z,19.98
2022-10-12T11:57:10.923Z,19.39
2022-10-12T11:59:45.810Z,19.11
